createdAt,value
2022-11-27T00:01:16.451Z,102184.09
2022-11-27T00:03:43.597Z,102176.56
2022-11-27T00:06:16.068Z,102183.16
2022-11-27T00:08:44.060Z,102176.84
2022-11-27T00:11:14.766Z,102163.13
2022-11-27T00:13:41.531Z,102160.75
2022-11-27T00:16:09.088Z,102151.13
2022-11-27T00:18:36.140Z,102144.25
2022-11-27T00:21:08.130Z,102143.16
2022-11-27T00:23:36.174Z,102129.44
2022-11-27T00:26:03.614Z,102138.81
2022-11-27T00:28:30.366Z,102143.16
2022-11-27T00:31:01.995Z,102147.19
2022-11-27T00:33:28.561Z,102145.41
2022-11-27T00:35:55.229Z,102140.34
2022-11-27T00:38:24.732Z,102130.16
2022-11-27T00:40:51.186Z,102139.94
2022-11-27T00:43:17.582Z,102130.03
2022-11-27T00:45:49.442Z,102125.97
2022-11-27T00:48:15.823Z,102126.38
2022-11-27T00:50:42.268Z,102115.34
2022-11-27T00:53:08.701Z,102128.91
2022-11-27T00:55:35.122Z,102123.44
2022-11-27T00:58:01.535Z,102115.47
2022-11-27T01:00:27.990Z,102118.84
2022-11-27T01:02:55.513Z,102108.22
2022-11-27T01:05:22.327Z,102114.00
2022-11-27T01:07:48.785Z,102103.50
2022-11-27T01:10:15.432Z,102107.72
2022-11-27T01:12:42.981Z,102110.38
2022-11-27T01:15:09.992Z,102103.94
2022-11-27T01:17:36.472Z,102107.44
2022-11-27T01:20:03.194Z,102104.06
2022-11-27T01:22:29.652Z,102082.69
2022-11-27T01:24:56.084Z,102080.44
2022-11-27T01:27:22.482Z,102078.34
2022-11-27T01:29:48.894Z,102045.59
2022-11-27T01:32:15.326Z,102059.44
2022-11-27T01:34:42.013Z,102053.28
2022-11-27T01:37:08.566Z,102059.97
2022-11-27T01:39:35.065Z,102056.91
2022-11-27T01:42:02.613Z,102053.41
2022-11-27T01:44:29.009Z,102056.19
2022-11-27T01:47:06.943Z,102048.50
2022-11-27T01:49:38.465Z,102036.59
2022-11-27T01:52:11.793Z,102038.16
2022-11-27T01:55:04.424Z,102039.97
2022-11-27T01:57:38.859Z,102024.88
2022-11-27T02:00:07.714Z,102026.00
2022-11-27T02:02:34.283Z,102021.66
2022-11-27T02:05:00.697Z,102021.66
2022-11-27T02:07:27.382Z,102025.88
2022-11-27T02:09:53.873Z,102016.91
2022-11-27T02:12:25.483Z,102026.84
2022-11-27T02:15:21.749Z,102032.16
2022-11-27T02:18:01.623Z,102030.91
2022-11-27T02:20:39.324Z,102031.47
2022-11-27T02:23:11.797Z,102037.59
2022-11-27T02:25:38.143Z,102037.34
2022-11-27T02:28:19.272Z,102036.34
2022-11-27T02:30:52.739Z,102030.34
2022-11-27T02:33:21.270Z,102030.91
2022-11-27T02:35:57.721Z,102034.28
2022-11-27T02:38:36.765Z,102026.44
2022-11-27T02:41:12.921Z,102021.28
2022-11-27T02:43:45.127Z,102009.81
2022-11-27T02:46:13.390Z,102018.47
2022-11-27T02:48:45.858Z,102011.47
2022-11-27T02:51:14.682Z,102006.00
2022-11-27T02:53:57.949Z,101991.50
2022-11-27T02:56:28.100Z,102001.13
2022-11-27T02:59:01.904Z,101999.19
2022-11-27T03:01:34.787Z,102005.34
2022-11-27T03:04:06.238Z,102007.00
2022-11-27T03:06:46.689Z,102012.31
2022-11-27T03:09:18.233Z,102008.81
2022-11-27T03:11:45.656Z,101996.94
2022-11-27T03:14:14.052Z,101995.81
2022-11-27T03:16:55.717Z,101993.16
2022-11-27T03:19:45.739Z,101988.81
2022-11-27T03:22:12.771Z,101985.47
2022-11-27T03:24:39.775Z,101989.69
2022-11-27T03:27:06.717Z,101981.00
2022-11-27T03:29:58.122Z,101983.66
2022-11-27T03:32:26.894Z,101978.19
2022-11-27T03:34:54.112Z,101989.41
2022-11-27T03:37:21.415Z,101979.19
2022-11-27T03:39:48.416Z,101977.22
2022-11-27T03:42:46.025Z,101981.44
2022-11-27T03:45:18.611Z,101975.41
2022-11-27T03:48:13.296Z,101973.47
2022-11-27T03:51:18.298Z,101961.88
2022-11-27T03:54:03.276Z,101966.22
2022-11-27T03:56:38.407Z,101975.16
2022-11-27T03:59:13.234Z,101980.22
2022-11-27T04:01:40.604Z,101989.00
2022-11-27T04:04:07.866Z,101979.06
2022-11-27T04:06:34.347Z,101973.47
2022-11-27T04:09:00.799Z,101964.13
2022-11-27T04:11:27.355Z,101968.28
2022-11-27T04:13:53.883Z,101971.81
2022-11-27T04:16:20.644Z,101974.47
2022-11-27T04:18:47.141Z,101970.66
2022-11-27T04:21:13.562Z,101970.00
2022-11-27T04:23:40.808Z,101972.66
2022-11-27T04:26:07.178Z,101972.66
2022-11-27T04:28:34.631Z,101970.94
2022-11-27T04:31:01.393Z,101957.66
2022-11-27T04:33:27.934Z,101952.09
2022-11-27T04:35:54.597Z,101965.78
2022-11-27T04:38:21.929Z,101958.81
2022-11-27T04:40:48.627Z,101961.47
2022-11-27T04:43:15.042Z,101955.59
2022-11-27T04:45:41.512Z,101953.78
2022-11-27T04:48:07.895Z,101953.31
2022-11-27T04:50:34.425Z,101957.53
2022-11-27T04:53:00.889Z,101957.53
2022-11-27T04:55:27.514Z,101956.81
2022-11-27T04:57:53.984Z,101956.94
2022-11-27T05:00:21.339Z,101953.31
2022-11-27T05:02:48.029Z,101952.50
2022-11-27T05:05:14.767Z,101950.78
2022-11-27T05:07:41.178Z,101943.81
2022-11-27T05:10:08.464Z,101927.88
2022-11-27T05:12:34.952Z,101929.69
2022-11-27T05:15:04.471Z,101930.53
2022-11-27T05:17:31.510Z,101931.53
2022-11-27T05:19:57.895Z,101923.66
2022-11-27T05:22:24.291Z,101910.13
2022-11-27T05:24:50.694Z,101915.56
2022-11-27T05:27:17.277Z,101920.19
2022-11-27T05:29:43.746Z,101928.88
2022-11-27T05:32:10.204Z,101913.19
2022-11-27T05:34:36.581Z,101920.06
2022-11-27T05:37:03.043Z,101916.69
2022-11-27T05:39:29.508Z,101917.69
2022-11-27T05:41:56.058Z,101917.53
2022-11-27T05:44:22.469Z,101907.47
2022-11-27T05:46:48.964Z,101911.53
2022-11-27T05:49:16.488Z,101904.66
2022-11-27T05:51:49.382Z,101907.47
2022-11-27T05:54:17.766Z,101910.13
2022-11-27T05:56:44.182Z,101907.75
2022-11-27T05:59:10.961Z,101885.25
2022-11-27T06:01:37.547Z,101898.94
2022-11-27T06:04:04.245Z,101897.13
2022-11-27T06:06:30.969Z,101900.94
2022-11-27T06:08:57.356Z,101901.75
2022-11-27T06:11:24.202Z,101898.13
2022-11-27T06:13:50.727Z,101901.59
2022-11-27T06:16:20.724Z,101900.63
2022-11-27T06:18:54.782Z,101891.13
2022-11-27T06:21:22.745Z,101891.56
2022-11-27T06:23:49.741Z,101879.94
2022-11-27T06:26:22.412Z,101883.72
2022-11-27T06:28:49.819Z,101874.78
2022-11-27T06:31:19.308Z,101873.09
2022-11-27T06:33:50.049Z,101873.25
2022-11-27T06:36:18.002Z,101868.09
2022-11-27T06:38:45.767Z,101855.22
2022-11-27T06:41:15.270Z,101854.97
2022-11-27T06:43:41.858Z,101852.16
2022-11-27T06:46:12.025Z,101850.06
2022-11-27T06:48:38.472Z,101836.63
2022-11-27T06:51:07.177Z,101835.81
2022-11-27T06:53:37.107Z,101833.56
2022-11-27T06:56:04.697Z,101807.44
2022-11-27T06:58:31.470Z,101829.22
2022-11-27T07:01:02.587Z,101826.41
2022-11-27T07:03:29.460Z,101827.00
2022-11-27T07:05:59.672Z,101827.00
2022-11-27T07:08:26.076Z,101815.53
2022-11-27T07:10:52.513Z,101808.41
2022-11-27T07:13:20.344Z,101802.25
2022-11-27T07:15:46.746Z,101800.31
2022-11-27T07:18:14.114Z,101809.81
2022-11-27T07:20:40.581Z,101804.50
2022-11-27T07:23:06.998Z,101800.16
2022-11-27T07:25:33.378Z,101773.09
2022-11-27T07:27:59.790Z,101799.31
2022-11-27T07:30:26.206Z,101795.69
2022-11-27T07:32:52.654Z,101789.53
2022-11-27T07:35:19.120Z,101795.69
2022-11-27T07:37:45.521Z,101798.50
2022-11-27T07:40:13.084Z,101795.84
2022-11-27T07:42:41.319Z,101789.69
2022-11-27T07:45:08.966Z,101794.72
2022-11-27T07:47:35.384Z,101791.25
2022-11-27T07:50:01.968Z,101786.88
2022-11-27T07:52:28.387Z,101778.63
2022-11-27T07:54:54.826Z,101780.47
2022-11-27T07:57:21.310Z,101776.13
2022-11-27T07:59:48.056Z,101781.44
2022-11-27T08:02:14.784Z,101785.63
2022-11-27T08:04:41.651Z,101780.31
2022-11-27T08:07:08.354Z,101787.28
2022-11-27T08:09:34.856Z,101785.50
2022-11-27T08:12:01.421Z,101781.97
2022-11-27T08:14:27.883Z,101789.00
2022-11-27T08:16:54.524Z,101789.53
2022-11-27T08:19:21.571Z,101785.19
2022-11-27T08:21:48.030Z,101785.50
2022-11-27T08:24:14.527Z,101786.44
2022-11-27T08:26:40.997Z,101784.09
2022-11-27T08:29:07.460Z,101795.69
2022-11-27T08:31:34.127Z,101793.34
2022-11-27T08:34:00.907Z,101790.69
2022-11-27T08:36:27.940Z,101789.84
2022-11-27T08:38:55.646Z,101791.50
2022-11-27T08:41:22.097Z,101780.06
2022-11-27T08:43:48.752Z,101785.38
2022-11-27T08:46:15.316Z,101789.00
2022-11-27T08:48:42.862Z,101776.72
2022-11-27T08:51:12.514Z,101778.66
2022-11-27T08:53:40.103Z,101787.31
2022-11-27T08:56:17.951Z,101800.75
2022-11-27T08:58:45.383Z,101777.16
2022-11-27T09:01:15.909Z,101785.63
2022-11-27T09:03:42.455Z,101781.16
2022-11-27T09:06:11.514Z,101776.00
2022-11-27T09:08:40.106Z,101783.81
2022-11-27T09:11:07.400Z,101780.47
2022-11-27T09:13:36.956Z,101777.66
2022-11-27T09:16:09.372Z,101777.97
2022-11-27T09:18:35.871Z,101770.44
2022-11-27T09:21:08.362Z,101768.34
2022-11-27T09:23:35.644Z,101777.16
2022-11-27T09:26:04.288Z,101774.59
2022-11-27T09:28:32.004Z,101770.16
2022-11-27T09:31:00.705Z,101771.94
2022-11-27T09:33:29.246Z,101777.16
2022-11-27T09:35:55.901Z,101773.66
2022-11-27T09:38:23.660Z,101757.31
2022-11-27T09:40:52.127Z,101762.31
2022-11-27T09:43:34.559Z,101751.00
2022-11-27T09:46:09.042Z,101754.38
2022-11-27T09:48:39.792Z,101748.34
2022-11-27T09:51:24.733Z,101753.66
2022-11-27T09:54:18.147Z,101751.00
2022-11-27T09:56:48.056Z,101747.53
2022-11-27T09:59:21.026Z,101742.34
2022-11-27T10:01:50.921Z,101747.66
2022-11-27T10:04:19.693Z,101739.97
2022-11-27T10:07:01.377Z,101738.72
2022-11-27T10:10:07.737Z,101724.22
2022-11-27T10:12:51.053Z,101742.09
2022-11-27T10:15:21.478Z,101729.63
2022-11-27T10:18:21.582Z,101727.81
2022-11-27T10:20:57.704Z,101729.63
2022-11-27T10:23:42.948Z,101730.31
2022-11-27T10:26:20.038Z,101725.16
2022-11-27T10:28:56.135Z,101722.66
2022-11-27T10:31:33.307Z,101721.66
2022-11-27T10:34:03.212Z,101724.31
2022-11-27T10:36:48.831Z,101721.00
2022-11-27T10:39:41.299Z,101724.47
2022-11-27T10:42:22.640Z,101715.53
2022-11-27T10:45:00.475Z,101710.09
2022-11-27T10:47:32.286Z,101702.94
2022-11-27T10:50:00.479Z,101699.47
2022-11-27T10:52:27.070Z,101684.34
2022-11-27T10:54:57.769Z,101685.91
2022-11-27T10:58:16.003Z,101677.78
2022-11-27T11:00:42.449Z,101679.03
2022-11-27T11:03:17.410Z,101671.47
2022-11-27T11:06:24.285Z,101647.78
2022-11-27T11:08:42.533Z,101662.56
2022-11-27T11:11:09.850Z,101660.75
2022-11-27T11:13:47.053Z,101660.44
2022-11-27T11:16:14.846Z,101659.31
2022-11-27T11:18:51.618Z,101652.47
2022-11-27T11:21:28.408Z,101653.19
2022-11-27T11:24:14.507Z,101642.84
2022-11-27T11:26:46.379Z,101643.97
2022-11-27T11:29:34.818Z,101658.34
2022-11-27T11:32:14.703Z,101646.72
2022-11-27T11:34:44.059Z,101656.50
2022-11-27T11:37:27.543Z,101647.72
2022-11-27T11:40:05.767Z,101644.06
2022-11-27T11:42:35.724Z,101644.06
2022-11-27T11:45:19.203Z,101640.16
2022-11-27T11:47:48.060Z,101629.81
2022-11-27T11:50:22.900Z,101628.84
2022-11-27T11:53:26.724Z,101617.38
2022-11-27T11:56:05.717Z,101607.91
2022-11-27T11:58:49.041Z,101603.25
2022-11-27T12:01:44.875Z,101591.66
2022-11-27T12:04:31.818Z,101587.31
2022-11-27T12:07:19.415Z,101577.38
2022-11-27T12:10:13.488Z,101573.94
2022-11-27T12:13:19.158Z,101576.56
2022-11-27T12:15:59.034Z,101574.75
2022-11-27T12:18:45.746Z,101569.28
2022-11-27T12:21:21.518Z,101560.50
2022-11-27T12:23:57.442Z,101556.00
2022-11-27T12:27:02.254Z,101557.69
2022-11-27T12:29:54.942Z,101549.03
2022-11-27T12:32:42.052Z,101546.38
2022-11-27T12:35:17.710Z,101548.88
2022-11-27T12:37:56.872Z,101550.69
2022-11-27T12:41:03.160Z,101548.88
2022-11-27T12:43:38.673Z,101539.25
2022-11-27T12:46:20.522Z,101546.22
2022-11-27T12:48:59.303Z,101536.59
2022-11-27T12:51:31.525Z,101532.09
2022-11-27T12:54:25.757Z,101529.31
2022-11-27T12:56:57.831Z,101526.53
2022-11-27T12:59:25.447Z,101525.53
2022-11-27T13:01:55.002Z,101528.19
2022-11-27T13:04:34.541Z,101529.19
2022-11-27T13:07:23.947Z,101528.03
2022-11-27T13:09:56.110Z,101517.25
2022-11-27T13:12:30.000Z,101505.94
2022-11-27T13:15:01.755Z,101497.69
2022-11-27T13:17:42.814Z,101494.03
2022-11-27T13:20:17.801Z,101496.53
2022-11-27T13:22:46.170Z,101488.72
2022-11-27T13:25:14.847Z,101477.78
2022-11-27T13:27:46.027Z,101482.28
2022-11-27T13:30:22.303Z,101476.44
2022-11-27T13:33:01.747Z,101478.63
2022-11-27T13:35:38.615Z,101471.50
2022-11-27T13:38:23.185Z,101462.00
2022-11-27T13:40:56.039Z,101460.03
2022-11-27T13:43:42.589Z,101461.44
2022-11-27T13:46:19.616Z,101450.81
2022-11-27T13:48:57.601Z,101453.47
2022-11-27T13:51:27.870Z,101444.81
2022-11-27T13:54:06.102Z,101448.28
2022-11-27T13:56:32.526Z,101439.50
2022-11-27T13:58:59.092Z,101448.44
2022-11-27T14:01:25.841Z,101425.16
2022-11-27T14:03:52.720Z,101430.53
2022-11-27T14:06:30.316Z,101430.53
2022-11-27T14:09:00.909Z,101424.25
2022-11-27T14:11:41.321Z,101415.59
2022-11-27T14:14:23.672Z,101408.44
2022-11-27T14:17:08.367Z,101396.16
2022-11-27T14:19:43.303Z,101397.00
2022-11-27T14:23:07.111Z,101397.81
2022-11-27T14:25:33.908Z,101395.16
2022-11-27T14:28:10.287Z,101403.00
2022-11-27T14:30:55.443Z,101396.00
2022-11-27T14:33:31.207Z,101394.19
2022-11-27T14:36:03.160Z,101384.41
2022-11-27T14:38:32.298Z,101386.22
2022-11-27T14:41:10.265Z,101367.84
2022-11-27T14:43:36.834Z,101385.22
2022-11-27T14:46:05.206Z,101381.22
2022-11-27T14:48:43.757Z,101381.22
2022-11-27T14:51:22.214Z,101388.72
2022-11-27T14:53:50.719Z,101375.44
2022-11-27T14:56:17.958Z,101365.13
2022-11-27T14:58:50.311Z,101369.13
2022-11-27T15:01:26.267Z,101350.00
2022-11-27T15:03:57.549Z,101348.19
2022-11-27T15:06:25.554Z,101357.84
2022-11-27T15:09:15.803Z,101342.88
2022-11-27T15:11:55.190Z,101345.69
2022-11-27T15:14:23.913Z,101343.88
2022-11-27T15:16:53.141Z,101343.38
2022-11-27T15:19:30.350Z,101351.16
2022-11-27T15:21:57.807Z,101355.78
2022-11-27T15:24:42.189Z,101358.44
2022-11-27T15:27:14.702Z,101353.31
2022-11-27T15:29:58.791Z,101342.16
2022-11-27T15:32:33.941Z,101333.88
2022-11-27T15:35:00.454Z,101342.53
2022-11-27T15:37:27.200Z,101337.22
2022-11-27T15:39:58.772Z,101329.25
2022-11-27T15:42:28.720Z,101333.06
2022-11-27T15:44:57.346Z,101328.03
2022-11-27T15:47:36.718Z,101331.22
2022-11-27T15:50:05.337Z,101320.22
2022-11-27T15:52:31.901Z,101320.22
2022-11-27T15:54:58.471Z,101314.63
2022-11-27T15:57:26.305Z,101310.28
2022-11-27T15:59:52.862Z,101302.47
2022-11-27T16:02:19.328Z,101296.84
2022-11-27T16:04:45.770Z,101296.84
2022-11-27T16:07:12.259Z,101277.59
2022-11-27T16:09:39.787Z,101273.13
2022-11-27T16:12:06.685Z,101272.28
2022-11-27T16:14:33.218Z,101267.44
2022-11-27T16:17:00.602Z,101262.28
2022-11-27T16:19:28.283Z,101269.94
2022-11-27T16:21:54.789Z,101267.28
2022-11-27T16:24:21.311Z,101263.28
2022-11-27T16:26:47.902Z,101263.50
2022-11-27T16:29:14.540Z,101258.19
2022-11-27T16:31:41.206Z,101252.88
2022-11-27T16:34:07.858Z,101255.53
2022-11-27T16:36:34.724Z,101256.34
2022-11-27T16:39:01.131Z,101248.25
2022-11-27T16:41:27.719Z,101251.72
2022-11-27T16:43:56.064Z,101256.88
2022-11-27T16:46:28.052Z,101246.91
2022-11-27T16:48:56.243Z,101241.59
2022-11-27T16:51:33.424Z,101247.28
2022-11-27T16:54:02.111Z,101244.47
2022-11-27T16:56:30.283Z,101246.97
2022-11-27T16:59:02.822Z,101245.16
2022-11-27T17:01:34.124Z,101245.16
2022-11-27T17:04:03.445Z,101237.00
2022-11-27T17:06:32.076Z,101225.56
2022-11-27T17:09:00.443Z,101229.75
2022-11-27T17:11:30.792Z,101227.09
2022-11-27T17:13:58.516Z,101210.16
2022-11-27T17:16:25.215Z,101201.38
2022-11-27T17:18:51.777Z,101198.84
2022-11-27T17:21:27.295Z,101206.69
2022-11-27T17:24:02.351Z,101208.50
2022-11-27T17:26:30.664Z,101205.69
2022-11-27T17:28:57.482Z,101199.41
2022-11-27T17:31:26.851Z,101200.38
2022-11-27T17:33:57.103Z,101198.56
2022-11-27T17:36:26.092Z,101186.25
2022-11-27T17:38:53.753Z,101183.72
2022-11-27T17:41:21.055Z,101182.09
2022-11-27T17:43:48.128Z,101173.28
2022-11-27T17:46:23.714Z,101166.47
2022-11-27T17:48:50.824Z,101168.13
2022-11-27T17:51:18.573Z,101167.63
2022-11-27T17:53:45.358Z,101160.81
2022-11-27T17:56:14.745Z,101152.78
2022-11-27T17:58:41.554Z,101160.13
2022-11-27T18:01:15.162Z,101156.81
2022-11-27T18:03:42.598Z,101153.31
2022-11-27T18:06:09.321Z,101158.78
2022-11-27T18:08:36.195Z,101146.66
2022-11-27T18:11:12.646Z,101151.13
2022-11-27T18:13:39.714Z,101146.84
2022-11-27T18:16:07.590Z,101138.19
2022-11-27T18:18:34.152Z,101131.34
2022-11-27T18:21:12.941Z,101130.56
2022-11-27T18:24:14.556Z,101122.59
2022-11-27T18:26:52.614Z,101129.03
2022-11-27T18:29:16.788Z,101118.75
2022-11-27T18:31:43.474Z,101118.56
2022-11-27T18:34:09.973Z,101121.91
2022-11-27T18:36:36.372Z,101121.22
2022-11-27T18:39:04.881Z,101116.09
2022-11-27T18:41:31.259Z,101111.75
2022-11-27T18:43:58.074Z,101104.78
2022-11-27T18:46:25.696Z,101098.81
2022-11-27T18:48:52.320Z,101101.47
2022-11-27T18:51:22.071Z,101098.28
2022-11-27T18:53:49.394Z,101075.38
2022-11-27T18:56:18.792Z,101081.03
2022-11-27T18:58:46.699Z,101083.53
2022-11-27T19:01:16.696Z,101083.53
2022-11-27T19:03:43.853Z,101078.53
2022-11-27T19:06:12.790Z,101078.19
2022-11-27T19:08:39.655Z,101076.19
2022-11-27T19:11:08.569Z,101074.53
2022-11-27T19:13:36.086Z,101078.03
2022-11-27T19:16:11.144Z,101073.19
2022-11-27T19:18:37.899Z,101073.19
2022-11-27T19:21:22.031Z,101066.91
2022-11-27T19:23:49.615Z,101065.06
2022-11-27T19:26:29.101Z,101058.94
2022-11-27T19:28:58.006Z,101062.56
2022-11-27T19:31:27.701Z,101058.44
2022-11-27T19:34:01.015Z,101047.81
2022-11-27T19:36:29.639Z,101046.97
2022-11-27T19:38:58.719Z,101046.28
2022-11-27T19:41:26.404Z,101038.34
2022-11-27T19:43:53.525Z,101038.16
2022-11-27T19:46:29.837Z,101031.22
2022-11-27T19:49:01.629Z,101032.06
2022-11-27T19:51:31.473Z,101021.91
2022-11-27T19:54:00.307Z,101028.56
2022-11-27T19:56:30.379Z,101020.41
2022-11-27T19:58:57.001Z,101019.94
2022-11-27T20:01:23.486Z,101008.00
2022-11-27T20:03:50.804Z,101008.63
2022-11-27T20:06:20.051Z,101000.03
2022-11-27T20:08:49.581Z,101004.84
2022-11-27T20:11:19.528Z,100992.59
2022-11-27T20:13:46.327Z,100984.75
2022-11-27T20:16:16.812Z,100975.81
2022-11-27T20:18:44.075Z,100977.63
2022-11-27T20:21:14.613Z,100969.69
2022-11-27T20:23:42.291Z,100970.69
2022-11-27T20:26:12.256Z,100969.69
2022-11-27T20:28:41.293Z,100958.56
2022-11-27T20:31:14.001Z,100954.94
2022-11-27T20:33:40.484Z,100950.59
2022-11-27T20:36:12.154Z,100948.78
2022-11-27T20:38:39.099Z,100946.97
2022-11-27T20:41:09.703Z,100950.59
2022-11-27T20:43:37.256Z,100942.81
2022-11-27T20:46:04.525Z,100940.81
2022-11-27T20:48:31.385Z,100936.53
2022-11-27T20:51:05.532Z,100930.53
2022-11-27T20:53:31.936Z,100937.50
2022-11-27T20:56:03.099Z,100929.69
2022-11-27T20:58:29.498Z,100940.31
2022-11-27T21:00:59.700Z,100926.88
2022-11-27T21:03:29.803Z,100936.53
2022-11-27T21:05:56.189Z,100930.53
2022-11-27T21:08:23.000Z,100924.22
2022-11-27T21:10:50.523Z,100928.41
2022-11-27T21:13:17.626Z,100926.88
2022-11-27T21:15:47.705Z,100927.88
2022-11-27T21:18:15.245Z,100933.03
2022-11-27T21:20:42.285Z,100932.19
2022-11-27T21:23:09.785Z,100928.69
2022-11-27T21:25:37.994Z,100917.94
2022-11-27T21:28:04.606Z,100922.25
2022-11-27T21:30:31.237Z,100910.00
2022-11-27T21:32:57.654Z,100912.66
2022-11-27T21:35:30.092Z,100906.50
2022-11-27T21:37:58.073Z,100888.09
2022-11-27T21:40:24.463Z,100896.22
2022-11-27T21:42:52.031Z,100900.53
2022-11-27T21:45:18.578Z,100897.88
2022-11-27T21:47:46.095Z,100890.91
2022-11-27T21:50:13.673Z,100888.91
2022-11-27T21:52:40.291Z,100889.91
2022-11-27T21:55:11.864Z,100889.06
2022-11-27T21:57:38.730Z,100887.09
2022-11-27T22:00:06.066Z,100881.28
2022-11-27T22:02:33.589Z,100880.13
2022-11-27T22:05:00.055Z,100866.88
2022-11-27T22:07:26.514Z,100863.22
2022-11-27T22:09:53.047Z,100866.19
2022-11-27T22:12:19.461Z,100858.25
2022-11-27T22:14:45.928Z,100857.25
2022-11-27T22:17:12.419Z,100859.88
2022-11-27T22:19:42.293Z,100855.25
2022-11-27T22:22:09.018Z,100849.44
2022-11-27T22:24:35.494Z,100845.81
2022-11-27T22:27:02.191Z,100852.59
2022-11-27T22:29:28.589Z,100828.91
2022-11-27T22:31:55.083Z,100842.84
2022-11-27T22:34:21.705Z,100835.72
2022-11-27T22:36:48.152Z,100826.06
2022-11-27T22:39:14.984Z,100826.91
2022-11-27T22:41:42.060Z,100821.94
2022-11-27T22:44:11.877Z,100823.41
2022-11-27T22:46:40.910Z,100821.44
2022-11-27T22:49:07.883Z,100811.00
2022-11-27T22:51:36.231Z,100816.13
2022-11-27T22:54:03.929Z,100813.47
2022-11-27T22:56:30.544Z,100809.19
2022-11-27T22:59:30.364Z,100810.00
2022-11-27T23:01:48.770Z,100805.69
2022-11-27T23:04:15.602Z,100791.94
2022-11-27T23:06:42.055Z,100801.88
2022-11-27T23:09:09.628Z,100794.91
2022-11-27T23:11:36.006Z,100805.34
2022-11-27T23:14:03.393Z,100798.56
2022-11-27T23:16:30.017Z,100803.38
2022-11-27T23:18:56.459Z,100781.31
2022-11-27T23:21:24.157Z,100793.59
2022-11-27T23:23:51.451Z,100790.94
2022-11-27T23:26:22.383Z,100796.09
2022-11-27T23:28:52.122Z,100791.59
2022-11-27T23:31:30.422Z,100791.28
2022-11-27T23:33:59.181Z,100780.66
2022-11-27T23:36:25.793Z,100778.00
2022-11-27T23:38:52.450Z,100782.47
2022-11-27T23:41:25.269Z,100782.31
2022-11-27T23:43:53.329Z,100777.84
2022-11-27T23:46:22.620Z,100777.16
2022-11-27T23:48:49.347Z,100773.16
2022-11-27T23:51:20.811Z,100775.00
2022-11-27T23:53:47.797Z,100775.00
2022-11-27T23:56:17.211Z,100772.19
2022-11-27T23:58:47.053Z,100762.41
